sensor_id;sensor_type;location;lat;lon;timestamp;temperature;humidity
23186;DHT22;11761;51.324;4.590;2022-10-16T00:01:10;12.10;99.90
23186;DHT22;11761;51.324;4.590;2022-10-16T00:03:38;12.10;99.90
23186;DHT22;11761;51.324;4.590;2022-10-16T00:06:04;12.00;99.90
23186;DHT22;11761;51.324;4.590;2022-10-16T00:08:31;11.90;99.90
23186;DHT22;11761;51.324;4.590;2022-10-16T00:11:03;11.90;99.90
23186;DHT22;11761;51.324;4.590;2022-10-16T00:13:31;12.10;99.90
23186;DHT22;11761;51.324;4.590;2022-10-16T00:15:58;12.20;99.90
23186;DHT22;11761;51.324;4.590;2022-10-16T00:18:26;12.30;99.90
23186;DHT22;11761;51.324;4.590;2022-10-16T00:20:52;12.30;99.90
23186;DHT22;11761;51.324;4.590;2022-10-16T00:23:19;12.40;99.90
23186;DHT22;11761;51.324;4.590;2022-10-16T00:25:53;12.50;99.90
23186;DHT22;11761;51.324;4.590;2022-10-16T00:28:20;12.50;99.90
23186;DHT22;11761;51.324;4.590;2022-10-16T00:30:46;12.50;99.90
23186;DHT22;11761;51.324;4.590;2022-10-16T00:33:12;12.60;99.90
23186;DHT22;11761;51.324;4.590;2022-10-16T00:35:38;12.70;99.90
23186;DHT22;11761;51.324;4.590;2022-10-16T00:38:04;12.60;99.90
23186;DHT22;11761;51.324;4.590;2022-10-16T00:40:30;12.60;99.90
23186;DHT22;11761;51.324;4.590;2022-10-16T00:42:57;12.60;99.90
23186;DHT22;11761;51.324;4.590;2022-10-16T00:45:23;12.60;99.90
23186;DHT22;11761;51.324;4.590;2022-10-16T00:47:51;12.60;99.90
23186;DHT22;11761;51.324;4.590;2022-10-16T00:52:55;12.60;99.90
23186;DHT22;11761;51.324;4.590;2022-10-16T00:55:22;12.60;99.90
23186;DHT22;11761;51.324;4.590;2022-10-16T00:57:49;12.60;99.90
23186;DHT22;11761;51.324;4.590;2022-10-16T01:00:19;12.70;99.90
23186;DHT22;11761;51.324;4.590;2022-10-16T01:02:56;12.70;99.90
23186;DHT22;11761;51.324;4.590;2022-10-16T01:05:23;12.70;99.90
23186;DHT22;11761;51.324;4.590;2022-10-16T01:08:47;12.70;99.90
23186;DHT22;11761;51.324;4.590;2022-10-16T01:11:17;12.70;99.90
23186;DHT22;11761;51.324;4.590;2022-10-16T01:13:48;12.70;99.90
23186;DHT22;11761;51.324;4.590;2022-10-16T01:16:39;12.70;99.90
23186;DHT22;11761;51.324;4.590;2022-10-16T01:19:19;12.70;99.90
23186;DHT22;11761;51.324;4.590;2022-10-16T01:21:48;12.70;99.90
23186;DHT22;11761;51.324;4.590;2022-10-16T01:24:40;12.60;99.90
23186;DHT22;11761;51.324;4.590;2022-10-16T01:27:16;12.60;99.90
23186;DHT22;11761;51.324;4.590;2022-10-16T01:35:11;12.60;99.90
23186;DHT22;11761;51.324;4.590;2022-10-16T01:40:17;12.60;99.90
23186;DHT22;11761;51.324;4.590;2022-10-16T01:42:49;12.60;99.90
23186;DHT22;11761;51.324;4.590;2022-10-16T01:45:18;12.60;99.90
23186;DHT22;11761;51.324;4.590;2022-10-16T01:47:46;12.60;99.90
23186;DHT22;11761;51.324;4.590;2022-10-16T01:50:15;12.60;99.90
23186;DHT22;11761;51.324;4.590;2022-10-16T01:52:45;12.60;99.90
23186;DHT22;11761;51.324;4.590;2022-10-16T01:55:14;12.50;99.90
23186;DHT22;11761;51.324;4.590;2022-10-16T01:57:45;12.50;99.90
23186;DHT22;11761;51.324;4.590;2022-10-16T02:00:14;12.50;99.90
23186;DHT22;11761;51.324;4.590;2022-10-16T02:02:45;12.50;99.90
23186;DHT22;11761;51.324;4.590;2022-10-16T02:08:10;12.50;99.90
23186;DHT22;11761;51.324;4.590;2022-10-16T02:10:37;12.50;99.90
23186;DHT22;11761;51.324;4.590;2022-10-16T02:13:08;12.50;99.90
23186;DHT22;11761;51.324;4.590;2022-10-16T02:15:35;12.50;99.90
23186;DHT22;11761;51.324;4.590;2022-10-16T02:18:04;12.50;99.90
23186;DHT22;11761;51.324;4.590;2022-10-16T02:20:36;12.50;99.90
23186;DHT22;11761;51.324;4.590;2022-10-16T02:23:09;12.50;99.90
23186;DHT22;11761;51.324;4.590;2022-10-16T02:25:41;12.50;99.90
23186;DHT22;11761;51.324;4.590;2022-10-16T02:28:19;12.40;99.90
23186;DHT22;11761;51.324;4.590;2022-10-16T02:30:59;12.40;99.90
23186;DHT22;11761;51.324;4.590;2022-10-16T02:33:29;12.40;99.90
23186;DHT22;11761;51.324;4.590;2022-10-16T02:35:57;12.40;99.90
23186;DHT22;11761;51.324;4.590;2022-10-16T02:38:24;12.40;99.90
23186;DHT22;11761;51.324;4.590;2022-10-16T02:40:52;12.40;99.90
23186;DHT22;11761;51.324;4.590;2022-10-16T02:43:18;12.40;99.90
23186;DHT22;11761;51.324;4.590;2022-10-16T02:45:45;12.40;99.90
23186;DHT22;11761;51.324;4.590;2022-10-16T02:48:11;12.40;99.90
23186;DHT22;11761;51.324;4.590;2022-10-16T02:50:37;12.40;99.90
23186;DHT22;11761;51.324;4.590;2022-10-16T02:53:03;12.30;99.90
23186;DHT22;11761;51.324;4.590;2022-10-16T02:55:29;12.30;99.90
23186;DHT22;11761;51.324;4.590;2022-10-16T02:57:55;12.30;99.90
23186;DHT22;11761;51.324;4.590;2022-10-16T03:00:21;12.30;99.90
23186;DHT22;11761;51.324;4.590;2022-10-16T03:02:47;12.30;99.90
23186;DHT22;11761;51.324;4.590;2022-10-16T03:05:14;12.30;99.90
23186;DHT22;11761;51.324;4.590;2022-10-16T03:07:41;12.30;99.90
23186;DHT22;11761;51.324;4.590;2022-10-16T03:10:07;12.40;99.90
23186;DHT22;11761;51.324;4.590;2022-10-16T03:12:33;12.40;99.90
23186;DHT22;11761;51.324;4.590;2022-10-16T03:15:00;12.30;99.90
23186;DHT22;11761;51.324;4.590;2022-10-16T03:17:26;12.30;99.90
23186;DHT22;11761;51.324;4.590;2022-10-16T03:19:52;12.40;99.90
23186;DHT22;11761;51.324;4.590;2022-10-16T03:22:18;12.40;99.90
23186;DHT22;11761;51.324;4.590;2022-10-16T03:24:44;12.40;99.90
23186;DHT22;11761;51.324;4.590;2022-10-16T03:27:10;12.40;99.90
23186;DHT22;11761;51.324;4.590;2022-10-16T03:29:37;12.40;99.90
23186;DHT22;11761;51.324;4.590;2022-10-16T03:32:03;12.40;99.90
23186;DHT22;11761;51.324;4.590;2022-10-16T03:34:29;12.50;99.90
23186;DHT22;11761;51.324;4.590;2022-10-16T03:36:55;12.50;99.90
23186;DHT22;11761;51.324;4.590;2022-10-16T03:39:21;12.50;99.90
23186;DHT22;11761;51.324;4.590;2022-10-16T03:41:47;12.50;99.90
23186;DHT22;11761;51.324;4.590;2022-10-16T03:44:14;12.50;99.90
23186;DHT22;11761;51.324;4.590;2022-10-16T03:46:40;12.50;99.90
23186;DHT22;11761;51.324;4.590;2022-10-16T03:49:06;12.50;99.90
23186;DHT22;11761;51.324;4.590;2022-10-16T03:51:32;12.50;99.90
23186;DHT22;11761;51.324;4.590;2022-10-16T03:53:58;12.50;99.90
23186;DHT22;11761;51.324;4.590;2022-10-16T03:56:24;12.30;99.90
23186;DHT22;11761;51.324;4.590;2022-10-16T03:58:50;12.20;99.90
23186;DHT22;11761;51.324;4.590;2022-10-16T04:01:16;12.30;99.90
23186;DHT22;11761;51.324;4.590;2022-10-16T04:03:43;12.40;99.90
23186;DHT22;11761;51.324;4.590;2022-10-16T04:06:09;12.40;99.90
23186;DHT22;11761;51.324;4.590;2022-10-16T04:08:35;12.40;99.90
23186;DHT22;11761;51.324;4.590;2022-10-16T04:11:03;12.40;99.90
23186;DHT22;11761;51.324;4.590;2022-10-16T04:13:29;12.40;99.90
23186;DHT22;11761;51.324;4.590;2022-10-16T04:15:55;12.50;99.90
23186;DHT22;11761;51.324;4.590;2022-10-16T04:18:21;12.40;99.90
23186;DHT22;11761;51.324;4.590;2022-10-16T04:20:47;12.40;99.90
23186;DHT22;11761;51.324;4.590;2022-10-16T04:23:13;12.40;99.90
23186;DHT22;11761;51.324;4.590;2022-10-16T04:25:40;12.40;99.90
23186;DHT22;11761;51.324;4.590;2022-10-16T04:28:06;12.40;99.90
23186;DHT22;11761;51.324;4.590;2022-10-16T04:30:32;12.40;99.90
23186;DHT22;11761;51.324;4.590;2022-10-16T04:32:59;12.50;99.90
23186;DHT22;11761;51.324;4.590;2022-10-16T04:35:25;12.40;99.90
23186;DHT22;11761;51.324;4.590;2022-10-16T04:37:51;12.50;99.90
23186;DHT22;11761;51.324;4.590;2022-10-16T04:40:18;12.50;99.90
23186;DHT22;11761;51.324;4.590;2022-10-16T04:42:44;12.50;99.90
23186;DHT22;11761;51.324;4.590;2022-10-16T04:45:10;12.40;99.90
23186;DHT22;11761;51.324;4.590;2022-10-16T04:47:36;12.40;99.90
23186;DHT22;11761;51.324;4.590;2022-10-16T04:50:03;12.40;99.90
23186;DHT22;11761;51.324;4.590;2022-10-16T04:52:29;12.30;99.90
23186;DHT22;11761;51.324;4.590;2022-10-16T04:54:58;12.30;99.90
23186;DHT22;11761;51.324;4.590;2022-10-16T04:57:27;12.30;99.90
23186;DHT22;11761;51.324;4.590;2022-10-16T04:59:53;12.30;99.90
23186;DHT22;11761;51.324;4.590;2022-10-16T05:02:20;12.30;99.90
23186;DHT22;11761;51.324;4.590;2022-10-16T05:04:46;12.30;99.90
23186;DHT22;11761;51.324;4.590;2022-10-16T05:07:12;12.20;99.90
23186;DHT22;11761;51.324;4.590;2022-10-16T05:09:38;12.30;99.90
23186;DHT22;11761;51.324;4.590;2022-10-16T05:12:04;12.30;99.90
23186;DHT22;11761;51.324;4.590;2022-10-16T05:14:30;12.30;99.90
23186;DHT22;11761;51.324;4.590;2022-10-16T05:16:57;12.30;99.90
23186;DHT22;11761;51.324;4.590;2022-10-16T05:19:23;12.30;99.90
23186;DHT22;11761;51.324;4.590;2022-10-16T05:21:49;12.30;99.90
23186;DHT22;11761;51.324;4.590;2022-10-16T05:24:15;12.30;99.90
23186;DHT22;11761;51.324;4.590;2022-10-16T05:26:41;12.30;99.90
23186;DHT22;11761;51.324;4.590;2022-10-16T05:29:08;12.30;99.90
23186;DHT22;11761;51.324;4.590;2022-10-16T05:31:34;12.30;99.90
23186;DHT22;11761;51.324;4.590;2022-10-16T05:34:01;12.30;99.90
23186;DHT22;11761;51.324;4.590;2022-10-16T05:36:28;12.30;99.90
23186;DHT22;11761;51.324;4.590;2022-10-16T05:38:54;12.30;99.90
23186;DHT22;11761;51.324;4.590;2022-10-16T05:41:20;12.30;99.90
23186;DHT22;11761;51.324;4.590;2022-10-16T05:43:48;12.30;99.90
23186;DHT22;11761;51.324;4.590;2022-10-16T05:46:14;12.30;99.90
23186;DHT22;11761;51.324;4.590;2022-10-16T05:48:40;12.30;99.90
23186;DHT22;11761;51.324;4.590;2022-10-16T05:51:09;12.20;99.90
23186;DHT22;11761;51.324;4.590;2022-10-16T05:53:36;12.20;99.90
23186;DHT22;11761;51.324;4.590;2022-10-16T05:56:03;12.20;99.90
23186;DHT22;11761;51.324;4.590;2022-10-16T05:58:32;12.20;99.90
23186;DHT22;11761;51.324;4.590;2022-10-16T06:01:09;12.20;99.90
23186;DHT22;11761;51.324;4.590;2022-10-16T06:03:35;12.10;99.90
23186;DHT22;11761;51.324;4.590;2022-10-16T06:06:16;12.20;99.90
23186;DHT22;11761;51.324;4.590;2022-10-16T06:08:43;12.10;99.90
23186;DHT22;11761;51.324;4.590;2022-10-16T06:11:11;12.10;99.90
23186;DHT22;11761;51.324;4.590;2022-10-16T06:13:37;12.10;99.90
23186;DHT22;11761;51.324;4.590;2022-10-16T06:16:05;12.20;99.90
23186;DHT22;11761;51.324;4.590;2022-10-16T06:18:31;12.20;99.90
23186;DHT22;11761;51.324;4.590;2022-10-16T06:20:57;12.20;99.90
23186;DHT22;11761;51.324;4.590;2022-10-16T06:23:24;12.20;99.90
23186;DHT22;11761;51.324;4.590;2022-10-16T06:25:51;12.20;99.90
23186;DHT22;11761;51.324;4.590;2022-10-16T06:28:17;12.30;99.90
23186;DHT22;11761;51.324;4.590;2022-10-16T06:30:43;12.30;99.90
23186;DHT22;11761;51.324;4.590;2022-10-16T06:33:11;12.30;99.90
23186;DHT22;11761;51.324;4.590;2022-10-16T06:35:37;12.30;99.90
23186;DHT22;11761;51.324;4.590;2022-10-16T06:38:03;12.30;99.90
23186;DHT22;11761;51.324;4.590;2022-10-16T06:40:30;12.40;99.90
23186;DHT22;11761;51.324;4.590;2022-10-16T06:42:56;12.40;99.90
23186;DHT22;11761;51.324;4.590;2022-10-16T06:45:22;12.40;99.90
23186;DHT22;11761;51.324;4.590;2022-10-16T06:47:48;12.40;99.90
23186;DHT22;11761;51.324;4.590;2022-10-16T06:50:14;12.40;99.90
23186;DHT22;11761;51.324;4.590;2022-10-16T06:52:40;12.40;99.90
23186;DHT22;11761;51.324;4.590;2022-10-16T06:55:07;12.40;99.90
23186;DHT22;11761;51.324;4.590;2022-10-16T06:57:33;12.40;99.90
23186;DHT22;11761;51.324;4.590;2022-10-16T06:59:59;12.50;99.90
23186;DHT22;11761;51.324;4.590;2022-10-16T07:02:25;12.50;99.90
23186;DHT22;11761;51.324;4.590;2022-10-16T07:04:51;12.60;99.90
23186;DHT22;11761;51.324;4.590;2022-10-16T07:07:17;12.70;99.90
23186;DHT22;11761;51.324;4.590;2022-10-16T07:09:44;12.70;99.90
23186;DHT22;11761;51.324;4.590;2022-10-16T07:12:10;12.80;99.90
23186;DHT22;11761;51.324;4.590;2022-10-16T07:14:36;12.90;99.90
23186;DHT22;11761;51.324;4.590;2022-10-16T07:17:02;12.90;99.90
23186;DHT22;11761;51.324;4.590;2022-10-16T07:19:28;13.00;99.90
23186;DHT22;11761;51.324;4.590;2022-10-16T07:21:54;13.10;99.90
23186;DHT22;11761;51.324;4.590;2022-10-16T07:24:20;13.10;99.90
23186;DHT22;11761;51.324;4.590;2022-10-16T07:26:46;13.10;99.90
23186;DHT22;11761;51.324;4.590;2022-10-16T07:29:18;13.20;99.90
23186;DHT22;11761;51.324;4.590;2022-10-16T07:31:45;13.30;99.90
23186;DHT22;11761;51.324;4.590;2022-10-16T07:34:12;13.30;99.90
23186;DHT22;11761;51.324;4.590;2022-10-16T07:36:39;13.30;99.90
23186;DHT22;11761;51.324;4.590;2022-10-16T07:39:06;13.40;99.90
23186;DHT22;11761;51.324;4.590;2022-10-16T07:41:32;13.40;99.90
23186;DHT22;11761;51.324;4.590;2022-10-16T07:44:03;13.50;99.90
23186;DHT22;11761;51.324;4.590;2022-10-16T07:46:29;13.60;99.90
23186;DHT22;11761;51.324;4.590;2022-10-16T07:48:56;13.60;99.90
23186;DHT22;11761;51.324;4.590;2022-10-16T07:51:24;13.70;99.90
23186;DHT22;11761;51.324;4.590;2022-10-16T07:53:50;13.80;99.90
23186;DHT22;11761;51.324;4.590;2022-10-16T07:56:18;13.80;99.90
23186;DHT22;11761;51.324;4.590;2022-10-16T07:58:45;13.90;99.90
23186;DHT22;11761;51.324;4.590;2022-10-16T08:01:13;14.00;99.90
23186;DHT22;11761;51.324;4.590;2022-10-16T08:03:47;14.00;99.90
23186;DHT22;11761;51.324;4.590;2022-10-16T08:06:14;14.10;99.90
23186;DHT22;11761;51.324;4.590;2022-10-16T08:08:40;14.20;99.90
23186;DHT22;11761;51.324;4.590;2022-10-16T08:11:06;14.20;99.90
23186;DHT22;11761;51.324;4.590;2022-10-16T08:13:33;14.30;99.90
23186;DHT22;11761;51.324;4.590;2022-10-16T08:15:59;14.30;99.90
23186;DHT22;11761;51.324;4.590;2022-10-16T08:18:26;14.40;99.90
23186;DHT22;11761;51.324;4.590;2022-10-16T08:20:59;14.50;99.90
23186;DHT22;11761;51.324;4.590;2022-10-16T08:23:27;14.60;99.90
23186;DHT22;11761;51.324;4.590;2022-10-16T08:25:54;14.60;99.90
23186;DHT22;11761;51.324;4.590;2022-10-16T08:28:20;14.70;99.90
23186;DHT22;11761;51.324;4.590;2022-10-16T08:30:46;14.80;99.90
23186;DHT22;11761;51.324;4.590;2022-10-16T08:33:13;14.80;99.90
23186;DHT22;11761;51.324;4.590;2022-10-16T08:35:39;14.90;99.90
23186;DHT22;11761;51.324;4.590;2022-10-16T08:38:06;15.00;99.90
23186;DHT22;11761;51.324;4.590;2022-10-16T08:40:35;15.10;99.90
23186;DHT22;11761;51.324;4.590;2022-10-16T08:48:52;15.20;99.90
23186;DHT22;11761;51.324;4.590;2022-10-16T08:53:51;15.30;99.90
23186;DHT22;11761;51.324;4.590;2022-10-16T08:56:18;15.30;99.90
23186;DHT22;11761;51.324;4.590;2022-10-16T08:58:46;15.40;99.90
23186;DHT22;11761;51.324;4.590;2022-10-16T09:01:15;15.40;99.90
23186;DHT22;11761;51.324;4.590;2022-10-16T09:04:48;15.50;99.90
23186;DHT22;11761;51.324;4.590;2022-10-16T09:06:52;15.50;99.90
23186;DHT22;11761;51.324;4.590;2022-10-16T09:09:25;15.60;99.90
23186;DHT22;11761;51.324;4.590;2022-10-16T09:17:31;15.70;99.90
23186;DHT22;11761;51.324;4.590;2022-10-16T09:22:43;15.90;99.90
23186;DHT22;11761;51.324;4.590;2022-10-16T09:25:16;16.10;99.90
23186;DHT22;11761;51.324;4.590;2022-10-16T09:27:47;16.00;99.90
23186;DHT22;11761;51.324;4.590;2022-10-16T09:30:19;16.10;99.90
23186;DHT22;11761;51.324;4.590;2022-10-16T09:32:48;16.10;99.90
23186;DHT22;11761;51.324;4.590;2022-10-16T09:35:18;16.20;99.90
23186;DHT22;11761;51.324;4.590;2022-10-16T09:37:47;16.30;99.90
23186;DHT22;11761;51.324;4.590;2022-10-16T09:40:31;16.30;99.90
23186;DHT22;11761;51.324;4.590;2022-10-16T09:43:46;16.40;99.90
23186;DHT22;11761;51.324;4.590;2022-10-16T09:48:49;16.80;99.90
23186;DHT22;11761;51.324;4.590;2022-10-16T09:51:29;16.70;99.90
23186;DHT22;11761;51.324;4.590;2022-10-16T09:54:39;16.90;99.90
23186;DHT22;11761;51.324;4.590;2022-10-16T09:56:47;17.00;99.90
23186;DHT22;11761;51.324;4.590;2022-10-16T09:59:19;17.00;99.90
23186;DHT22;11761;51.324;4.590;2022-10-16T10:01:51;17.00;99.90
23186;DHT22;11761;51.324;4.590;2022-10-16T10:04:19;17.10;99.90
23186;DHT22;11761;51.324;4.590;2022-10-16T10:06:53;17.30;99.90
23186;DHT22;11761;51.324;4.590;2022-10-16T10:09:37;17.40;99.90
23186;DHT22;11761;51.324;4.590;2022-10-16T10:12:05;17.40;99.90
23186;DHT22;11761;51.324;4.590;2022-10-16T10:14:45;17.40;99.90
23186;DHT22;11761;51.324;4.590;2022-10-16T10:17:23;17.30;99.90
23186;DHT22;11761;51.324;4.590;2022-10-16T10:19:58;17.40;99.90
23186;DHT22;11761;51.324;4.590;2022-10-16T10:22:40;17.60;99.90
23186;DHT22;11761;51.324;4.590;2022-10-16T10:30:24;17.90;99.90
23186;DHT22;11761;51.324;4.590;2022-10-16T10:33:03;17.70;99.90
23186;DHT22;11761;51.324;4.590;2022-10-16T10:38:59;17.50;99.90
23186;DHT22;11761;51.324;4.590;2022-10-16T10:49:44;17.10;99.90
23186;DHT22;11761;51.324;4.590;2022-10-16T10:55:16;17.50;99.90
23186;DHT22;11761;51.324;4.590;2022-10-16T11:06:48;18.40;99.90
23186;DHT22;11761;51.324;4.590;2022-10-16T11:08:45;18.40;99.90
23186;DHT22;11761;51.324;4.590;2022-10-16T11:11:23;18.50;99.90
23186;DHT22;11761;51.324;4.590;2022-10-16T11:13:58;18.40;99.90
23186;DHT22;11761;51.324;4.590;2022-10-16T11:16:40;18.10;99.90
23186;DHT22;11761;51.324;4.590;2022-10-16T11:19:38;18.20;99.90
23186;DHT22;11761;51.324;4.590;2022-10-16T11:22:29;18.10;99.90
23186;DHT22;11761;51.324;4.590;2022-10-16T11:27:50;18.80;99.90
23186;DHT22;11761;51.324;4.590;2022-10-16T11:30:22;19.20;99.90
23186;DHT22;11761;51.324;4.590;2022-10-16T11:32:50;19.40;99.90
23186;DHT22;11761;51.324;4.590;2022-10-16T11:35:32;19.40;99.90
23186;DHT22;11761;51.324;4.590;2022-10-16T11:38:04;19.40;99.90
23186;DHT22;11761;51.324;4.590;2022-10-16T11:40:37;19.30;99.90
23186;DHT22;11761;51.324;4.590;2022-10-16T11:45:42;19.40;99.90
23186;DHT22;11761;51.324;4.590;2022-10-16T11:48:25;19.30;99.90
23186;DHT22;11761;51.324;4.590;2022-10-16T11:53:53;19.10;99.90
23186;DHT22;11761;51.324;4.590;2022-10-16T11:56:23;19.20;99.90
23186;DHT22;11761;51.324;4.590;2022-10-16T12:01:33;18.80;99.90
23186;DHT22;11761;51.324;4.590;2022-10-16T12:06:47;19.10;99.90
23186;DHT22;11761;51.324;4.590;2022-10-16T12:09:29;19.10;99.90
23186;DHT22;11761;51.324;4.590;2022-10-16T12:11:56;19.20;99.90
23186;DHT22;11761;51.324;4.590;2022-10-16T12:17:20;18.90;99.90
23186;DHT22;11761;51.324;4.590;2022-10-16T12:19:59;18.70;99.90
23186;DHT22;11761;51.324;4.590;2022-10-16T12:22:29;18.80;99.90
23186;DHT22;11761;51.324;4.590;2022-10-16T12:24:56;19.20;99.90
23186;DHT22;11761;51.324;4.590;2022-10-16T12:29:58;19.20;99.90
23186;DHT22;11761;51.324;4.590;2022-10-16T12:32:33;19.40;99.90
23186;DHT22;11761;51.324;4.590;2022-10-16T12:35:01;19.40;99.90
23186;DHT22;11761;51.324;4.590;2022-10-16T12:37:31;19.30;99.90
23186;DHT22;11761;51.324;4.590;2022-10-16T12:39:59;19.40;99.90
23186;DHT22;11761;51.324;4.590;2022-10-16T12:42:37;19.70;99.90
23186;DHT22;11761;51.324;4.590;2022-10-16T12:47:51;19.60;99.90
23186;DHT22;11761;51.324;4.590;2022-10-16T12:50:37;19.60;99.90
23186;DHT22;11761;51.324;4.590;2022-10-16T12:53:21;19.10;99.90
23186;DHT22;11761;51.324;4.590;2022-10-16T12:58:34;18.40;99.90
23186;DHT22;11761;51.324;4.590;2022-10-16T13:01:37;18.10;99.90
23186;DHT22;11761;51.324;4.590;2022-10-16T13:04:30;18.00;99.90
23186;DHT22;11761;51.324;4.590;2022-10-16T13:07:28;17.80;99.90
23186;DHT22;11761;51.324;4.590;2022-10-16T13:13:01;17.80;99.90
23186;DHT22;11761;51.324;4.590;2022-10-16T13:21:29;17.70;99.90
23186;DHT22;11761;51.324;4.590;2022-10-16T13:29:18;18.10;99.90
23186;DHT22;11761;51.324;4.590;2022-10-16T13:31:45;18.70;99.90
23186;DHT22;11761;51.324;4.590;2022-10-16T13:34:15;19.20;99.90
23186;DHT22;11761;51.324;4.590;2022-10-16T13:36:51;19.30;99.90
23186;DHT22;11761;51.324;4.590;2022-10-16T13:39:25;19.30;99.90
23186;DHT22;11761;51.324;4.590;2022-10-16T13:42:25;19.30;99.90
23186;DHT22;11761;51.324;4.590;2022-10-16T13:44:54;19.50;99.90
23186;DHT22;11761;51.324;4.590;2022-10-16T13:47:23;19.30;99.90
23186;DHT22;11761;51.324;4.590;2022-10-16T13:50:03;18.70;99.90
23186;DHT22;11761;51.324;4.590;2022-10-16T13:52:31;18.30;99.90
23186;DHT22;11761;51.324;4.590;2022-10-16T13:54:58;18.20;99.90
23186;DHT22;11761;51.324;4.590;2022-10-16T13:57:24;18.10;99.90
23186;DHT22;11761;51.324;4.590;2022-10-16T13:59:51;18.00;99.90
23186;DHT22;11761;51.324;4.590;2022-10-16T14:04:46;17.90;99.90
23186;DHT22;11761;51.324;4.590;2022-10-16T14:07:17;17.90;99.90
23186;DHT22;11761;51.324;4.590;2022-10-16T14:09:48;17.80;99.90
23186;DHT22;11761;51.324;4.590;2022-10-16T14:12:15;17.80;99.90
23186;DHT22;11761;51.324;4.590;2022-10-16T14:14:47;17.80;99.90
23186;DHT22;11761;51.324;4.590;2022-10-16T14:17:24;17.80;99.90
23186;DHT22;11761;51.324;4.590;2022-10-16T14:19:55;17.80;99.90
23186;DHT22;11761;51.324;4.590;2022-10-16T14:22:36;17.80;99.90
23186;DHT22;11761;51.324;4.590;2022-10-16T14:30:33;17.90;99.90
23186;DHT22;11761;51.324;4.590;2022-10-16T14:33:05;17.90;99.90
23186;DHT22;11761;51.324;4.590;2022-10-16T14:35:34;17.90;99.90
23186;DHT22;11761;51.324;4.590;2022-10-16T14:38:02;17.80;99.90
23186;DHT22;11761;51.324;4.590;2022-10-16T14:40:35;17.80;99.90
23186;DHT22;11761;51.324;4.590;2022-10-16T14:43:04;17.90;99.90
23186;DHT22;11761;51.324;4.590;2022-10-16T14:45:33;17.80;99.90
23186;DHT22;11761;51.324;4.590;2022-10-16T14:48:06;17.80;99.90
23186;DHT22;11761;51.324;4.590;2022-10-16T14:50:40;17.70;99.90
23186;DHT22;11761;51.324;4.590;2022-10-16T14:53:13;17.60;99.90
23186;DHT22;11761;51.324;4.590;2022-10-16T14:55:40;17.50;99.90
23186;DHT22;11761;51.324;4.590;2022-10-16T14:58:13;17.40;99.90
23186;DHT22;11761;51.324;4.590;2022-10-16T15:00:40;17.40;99.90
23186;DHT22;11761;51.324;4.590;2022-10-16T15:03:07;17.30;99.90
23186;DHT22;11761;51.324;4.590;2022-10-16T15:05:33;17.30;99.90
23186;DHT22;11761;51.324;4.590;2022-10-16T15:07:59;17.30;99.90
23186;DHT22;11761;51.324;4.590;2022-10-16T15:10:27;17.30;99.90
23186;DHT22;11761;51.324;4.590;2022-10-16T15:12:54;17.20;99.90
23186;DHT22;11761;51.324;4.590;2022-10-16T15:17:54;16.90;99.90
23186;DHT22;11761;51.324;4.590;2022-10-16T15:20:27;16.80;99.90
23186;DHT22;11761;51.324;4.590;2022-10-16T15:22:54;16.80;99.90
23186;DHT22;11761;51.324;4.590;2022-10-16T15:25:36;16.80;99.90
23186;DHT22;11761;51.324;4.590;2022-10-16T15:28:03;16.70;99.90
23186;DHT22;11761;51.324;4.590;2022-10-16T15:30:30;16.70;99.90
23186;DHT22;11761;51.324;4.590;2022-10-16T15:32:57;16.50;99.90
23186;DHT22;11761;51.324;4.590;2022-10-16T15:35:23;16.50;99.90
23186;DHT22;11761;51.324;4.590;2022-10-16T15:37:50;16.40;99.90
23186;DHT22;11761;51.324;4.590;2022-10-16T15:40:17;16.40;99.90
23186;DHT22;11761;51.324;4.590;2022-10-16T15:42:44;16.30;99.90
23186;DHT22;11761;51.324;4.590;2022-10-16T15:45:11;16.30;99.90
23186;DHT22;11761;51.324;4.590;2022-10-16T15:47:38;16.20;99.90
23186;DHT22;11761;51.324;4.590;2022-10-16T15:50:05;16.10;99.90
23186;DHT22;11761;51.324;4.590;2022-10-16T15:52:31;16.10;99.90
23186;DHT22;11761;51.324;4.590;2022-10-16T15:54:58;16.10;99.90
23186;DHT22;11761;51.324;4.590;2022-10-16T15:57:24;16.00;99.90
23186;DHT22;11761;51.324;4.590;2022-10-16T15:59:51;16.00;99.90
23186;DHT22;11761;51.324;4.590;2022-10-16T16:02:17;15.90;99.90
23186;DHT22;11761;51.324;4.590;2022-10-16T16:04:43;15.80;99.90
23186;DHT22;11761;51.324;4.590;2022-10-16T16:07:09;15.80;99.90
23186;DHT22;11761;51.324;4.590;2022-10-16T16:09:36;15.70;99.90
23186;DHT22;11761;51.324;4.590;2022-10-16T16:12:02;15.70;99.90
23186;DHT22;11761;51.324;4.590;2022-10-16T16:14:29;15.60;99.90
23186;DHT22;11761;51.324;4.590;2022-10-16T16:16:55;15.60;99.90
23186;DHT22;11761;51.324;4.590;2022-10-16T16:19:22;15.50;99.90
23186;DHT22;11761;51.324;4.590;2022-10-16T16:21:48;15.40;99.90
23186;DHT22;11761;51.324;4.590;2022-10-16T16:24:14;15.40;99.90
23186;DHT22;11761;51.324;4.590;2022-10-16T16:26:41;15.40;99.90
23186;DHT22;11761;51.324;4.590;2022-10-16T16:29:11;15.40;99.90
23186;DHT22;11761;51.324;4.590;2022-10-16T16:31:39;15.30;99.90
23186;DHT22;11761;51.324;4.590;2022-10-16T16:34:06;15.30;99.90
23186;DHT22;11761;51.324;4.590;2022-10-16T16:36:33;15.20;99.90
23186;DHT22;11761;51.324;4.590;2022-10-16T16:38:59;15.20;99.90
23186;DHT22;11761;51.324;4.590;2022-10-16T16:41:28;15.20;99.90
23186;DHT22;11761;51.324;4.590;2022-10-16T16:43:55;15.10;99.90
23186;DHT22;11761;51.324;4.590;2022-10-16T16:46:22;15.10;99.90
23186;DHT22;11761;51.324;4.590;2022-10-16T16:48:48;15.10;99.90
23186;DHT22;11761;51.324;4.590;2022-10-16T16:51:17;15.10;99.90
23186;DHT22;11761;51.324;4.590;2022-10-16T16:53:48;15.00;99.90
23186;DHT22;11761;51.324;4.590;2022-10-16T16:56:15;15.00;99.90
23186;DHT22;11761;51.324;4.590;2022-10-16T16:58:45;15.00;99.90
23186;DHT22;11761;51.324;4.590;2022-10-16T17:01:11;14.90;99.90
23186;DHT22;11761;51.324;4.590;2022-10-16T17:03:37;14.90;99.90
23186;DHT22;11761;51.324;4.590;2022-10-16T17:06:07;14.90;99.90
23186;DHT22;11761;51.324;4.590;2022-10-16T17:08:35;14.90;99.90
23186;DHT22;11761;51.324;4.590;2022-10-16T17:11:01;14.90;99.90
23186;DHT22;11761;51.324;4.590;2022-10-16T17:13:30;14.80;99.90
23186;DHT22;11761;51.324;4.590;2022-10-16T17:15:56;14.80;99.90
23186;DHT22;11761;51.324;4.590;2022-10-16T17:18:23;14.80;99.90
23186;DHT22;11761;51.324;4.590;2022-10-16T17:20:50;14.80;99.90
23186;DHT22;11761;51.324;4.590;2022-10-16T17:23:18;14.80;99.90
23186;DHT22;11761;51.324;4.590;2022-10-16T17:25:45;14.80;99.90
23186;DHT22;11761;51.324;4.590;2022-10-16T17:28:12;14.70;99.90
23186;DHT22;11761;51.324;4.590;2022-10-16T17:30:40;14.70;99.90
23186;DHT22;11761;51.324;4.590;2022-10-16T17:33:07;14.80;99.90
23186;DHT22;11761;51.324;4.590;2022-10-16T17:35:45;14.80;99.90